イカルイト の空港の天気 - METARとTAF

イカルイト空港 ( CYFB / YFB ) - カナダ ヌナブト準州イカルイト
飛行場実況気象(Metar)
観測時間12/15 07:00 EST (12/15 12:00 UTC)
風向・風速南東 3m/s
視程3200m
天気現象弱い雪
全天の8割程度の雲 雲底高度 300m
全天を覆う雲 雲底高度 1010m
気温-9℃
湿度92%
気圧999.8hPa
METARCYFB 151200Z 13005KT 2SM -SN BKN010 OVC033 M09/M10 A2951 RMK SN6ST1SC1 /S03/ SLP998
過去の天気等 Google飛行場航空写真 Wunderground天気予報

過去48時間のMETAR

飛行場予報(TAF)
発表時間: 12/15 06:38 EST (12/15 11:38 UTC)
予報対象時間: 15日7時 EST ~ 16日7時 EST
風向・風速南東 3m/s
視程3220m
天気現象弱い雪
全天を覆う雲 鉛直視程 300m
15日7時 EST ~ 15日17時 EST に一時的に
視程10km以上
天気現象弱い雪
全天の4割程度の雲 雲底高度 370m
全天を覆う雲 雲底高度 910m
15日17時 EST から
風向・風速不定 2m/s
視程10km以上
全天の4割程度の雲 雲底高度 370m
全天の8割程度の雲 雲底高度 910m
15日17時 EST ~ 16日7時 EST に一時的に
視程6440m
天気現象弱い雪
全天の8割程度の雲 雲底高度 370m
TAF CYFB 151138Z 1512/1612 13006KT 2SM -SN VV010
TEMPO 1512/1522 6SM -SN SCT012 OVC030
FM152200 VRB03KT P6SM SCT012 BKN030
TEMPO 1522/1612 4SM -SN BKN012 RMK NXT FCST BY 151800Z